Spabunker 51 — ECNA — position and weather

sailwx.info

Track history (hours):
 
Tides and Currents Weather Stations Pressure Air Temp Water Temp Dewpoint Dewpoint Depression Visibility Wind Speed Wind Dir Waves Ship Positions

Spabunker 51

Last reported at 2016-Jul-28 20:34 UTC. Time now 2016-Jul-29 04:00 UTC.
Position N 36°06' W 005°25'.

Length 84 m; draft 5.8 m.

Type: Tanker. MMSI: 224322240.

Date/timePositionNaut miles runAvg speedWind from/ knotsBaromVisibWave heightAir tempDewpointWater temp
2016-Jul-28 20:34N 36°06' W 005°25'1 0.1
2016-Jul-28 05:18N 36°05' W 005°25'3 1.7
2016-Jul-28 03:29N 36°08' W 005°26'0 0.0
2016-Jul-28 02:13N 36°08' W 005°26'0 0.0
2016-Jul-28 01:14N 36°08' W 005°26'0 0.0
2016-Jul-28 00:32N 36°08' W 005°26'0 0.0
2016-Jul-27 23:34N 36°08' W 005°26'0 0.0
2016-Jul-27 22:32N 36°08' W 005°26'0 0.0
2016-Jul-27 20:15N 36°08' W 005°26'1 1.0
2016-Jul-27 19:33N 36°09' W 005°26'0 0.0
2016-Jul-27 18:33N 36°09' W 005°26'0 0.0
2016-Jul-27 17:27N 36°09' W 005°26'0 0.0
2016-Jul-27 16:33N 36°09' W 005°26'0 0.0
2016-Jul-27 15:24N 36°09' W 005°26'3 1.0
2016-Jul-27 12:28N 36°06' W 005°24'0 0.1
2016-Jul-27 11:28N 36°06' W 005°24'0 0.0
2016-Jul-27 02:26N 36°06' W 005°24'0 0.0
2016-Jul-27 01:27N 36°06' W 005°24'0 0.0
2016-Jul-27 00:33N 36°06' W 005°24'1 0.6
2016-Jul-26 23:33N 36°06' W 005°24'0 0.2
2016-Jul-26 22:29N 36°05' W 005°24'0 0.0
2016-Jul-26 21:14N 36°05' W 005°24'3 1.1
2016-Jul-26 18:28N 36°08' W 005°25'1 0.1
2016-Jul-26 03:33N 36°07' W 005°24'0 0.2
2016-Jul-26 02:33N 36°07' W 005°24'1 0.1
2016-Jul-25 04:33N 36°06' W 005°24'0 0.0
2016-Jul-25 03:32N 36°06' W 005°24'0 0.0
2016-Jul-25 02:31N 36°06' W 005°24'0 0.0
2016-Jul-25 01:34N 36°06' W 005°24'0 0.0
2016-Jul-25 00:33N 36°06' W 005°24'0 0.1
2016-Jul-24 23:21N 36°06' W 005°24'0 0.1
2016-Jul-24 22:34N 36°06' W 005°24'3 1.0
2016-Jul-24 19:13N 36°09' W 005°26'3 0.1
2016-Jul-23 20:18N 36°06' W 005°25'2 0.4
2016-Jul-23 14:09N 36°08' W 005°26'3 0.3
2016-Jul-23 04:33N 36°06' W 005°24'0 0.0
2016-Jul-23 03:34N 36°06' W 005°24'0 0.0
2016-Jul-23 02:33N 36°06' W 005°24'0 0.0
2016-Jul-23 01:34N 36°06' W 005°24'1 0.2
2016-Jul-22 22:16N 36°06' W 005°25'0 0.3
2016-Jul-22 21:33N 36°06' W 005°25'0 0.1
2016-Jul-22 20:31N 36°06' W 005°25'0 0.0
2016-Jul-21 22:21N 36°06' W 005°25'0 0.0
2016-Jul-21 21:14N 36°06' W 005°25'3 0.6
2016-Jul-21 16:33N 36°08' W 005°26'0 0.0
2016-Jul-21 15:33N 36°08' W 005°26'0 0.0
2016-Jul-21 14:16N 36°08' W 005°26'0 0.0
2016-Jul-21 13:29N 36°08' W 005°26'0 0.0
2016-Jul-21 12:25N 36°08' W 005°26'0 0.0
2016-Jul-21 11:34N 36°08' W 005°26'0 0.0
2016-Jul-21 10:33N 36°08' W 005°26'0 0.0
2016-Jul-21 08:32N 36°08' W 005°26'0 0.0
2016-Jul-21 07:33N 36°08' W 005°26'  
Track history (hours):
 
Tides and Currents Weather Stations Pressure Air Temp Water Temp Dewpoint Dewpoint Depression Visibility Wind Speed Wind Dir Waves Ship Positions

Spabunker 51

Last reported at 2016-Jul-28 20:34 UTC. Time now 2016-Jul-29 04:00 UTC.
Position N 36°06' W 005°25'.

Length 84 m; draft 5.8 m.

Type: Tanker. MMSI: 224322240.

Date/timePositionNaut miles runAvg speedWind from/ knotsBaromVisibWave heightAir tempDewpointWater temp
2016-Jul-28 20:34N 36°06' W 005°25'1 0.1
2016-Jul-28 05:18N 36°05' W 005°25'3 1.7
2016-Jul-28 03:29N 36°08' W 005°26'0 0.0
2016-Jul-28 02:13N 36°08' W 005°26'0 0.0
2016-Jul-28 01:14N 36°08' W 005°26'0 0.0
2016-Jul-28 00:32N 36°08' W 005°26'0 0.0
2016-Jul-27 23:34N 36°08' W 005°26'0 0.0
2016-Jul-27 22:32N 36°08' W 005°26'0 0.0
2016-Jul-27 20:15N 36°08' W 005°26'1 1.0
2016-Jul-27 19:33N 36°09' W 005°26'0 0.0
2016-Jul-27 18:33N 36°09' W 005°26'0 0.0
2016-Jul-27 17:27N 36°09' W 005°26'0 0.0
2016-Jul-27 16:33N 36°09' W 005°26'0 0.0
2016-Jul-27 15:24N 36°09' W 005°26'3 1.0
2016-Jul-27 12:28N 36°06' W 005°24'0 0.1
2016-Jul-27 11:28N 36°06' W 005°24'0 0.0
2016-Jul-27 02:26N 36°06' W 005°24'0 0.0
2016-Jul-27 01:27N 36°06' W 005°24'0 0.0
2016-Jul-27 00:33N 36°06' W 005°24'1 0.6
2016-Jul-26 23:33N 36°06' W 005°24'0 0.2
2016-Jul-26 22:29N 36°05' W 005°24'0 0.0
2016-Jul-26 21:14N 36°05' W 005°24'3 1.1
2016-Jul-26 18:28N 36°08' W 005°25'1 0.1
2016-Jul-26 03:33N 36°07' W 005°24'0 0.2
2016-Jul-26 02:33N 36°07' W 005°24'1 0.1
2016-Jul-25 04:33N 36°06' W 005°24'0 0.0
2016-Jul-25 03:32N 36°06' W 005°24'0 0.0
2016-Jul-25 02:31N 36°06' W 005°24'0 0.0
2016-Jul-25 01:34N 36°06' W 005°24'0 0.0
2016-Jul-25 00:33N 36°06' W 005°24'0 0.1
2016-Jul-24 23:21N 36°06' W 005°24'0 0.1
2016-Jul-24 22:34N 36°06' W 005°24'3 1.0
2016-Jul-24 19:13N 36°09' W 005°26'3 0.1
2016-Jul-23 20:18N 36°06' W 005°25'2 0.4
2016-Jul-23 14:09N 36°08' W 005°26'3 0.3
2016-Jul-23 04:33N 36°06' W 005°24'0 0.0
2016-Jul-23 03:34N 36°06' W 005°24'0 0.0
2016-Jul-23 02:33N 36°06' W 005°24'0 0.0
2016-Jul-23 01:34N 36°06' W 005°24'1 0.2
2016-Jul-22 22:16N 36°06' W 005°25'0 0.3
2016-Jul-22 21:33N 36°06' W 005°25'0 0.1
2016-Jul-22 20:31N 36°06' W 005°25'0 0.0
2016-Jul-21 22:21N 36°06' W 005°25'0 0.0
2016-Jul-21 21:14N 36°06' W 005°25'3 0.6
2016-Jul-21 16:33N 36°08' W 005°26'0 0.0
2016-Jul-21 15:33N 36°08' W 005°26'0 0.0
2016-Jul-21 14:16N 36°08' W 005°26'0 0.0
2016-Jul-21 13:29N 36°08' W 005°26'0 0.0
2016-Jul-21 12:25N 36°08' W 005°26'0 0.0
2016-Jul-21 11:34N 36°08' W 005°26'0 0.0
2016-Jul-21 10:33N 36°08' W 005°26'0 0.0
2016-Jul-21 08:32N 36°08' W 005°26'0 0.0
2016-Jul-21 07:33N 36°08' W 005°26'  

Dump ship's entire track history